Rechercher aéroport 
image banner adimage banner adimage banner ad
image banner ad

KVBG - Vandenberg Afb

Situé à Lompoc, United States

ICAO - VBG, IATA - VBG

Données fournies par Airmate  

Information générale

Coordonnées: N34°44'14" W120°35'4"
Élévation : 368 feet MSL.
Variation magnétique : 12° East
Voir autres Aéroports à California

Données opérationnelles

Special qualification required
Heure actuelle UTC:
Heure actuelle locale:
Météo
METAR: KVBG 251458Z AUTO 00000KT 4SM BR OVC002 12/12 A3000 RMK AO2 SLP162 52007
Voir NOTAMs / SUP AIP / TFR affectant cet aéroport [VIEW]
Fréquences de communication: [VIEW]

Pistes:

Identifiant RWYQFULongueur (ft)Largeur (ft)SurfaceLDA (ft)
12137°15000200CONC
30317°15000200CONC

Coordonnées de l'aéroport

Adresse: Lompoc United States

Vue satellite de KVBG